CPX241 Details

Departure: Huntsville International Airport (KHSV)
Arrival: Miami International Airport (KMIA) at N/A
Route: RMG ATL YANTI Q89 PRMUS OMN HILEY7
Notes:


Current Weather Information
KHSV 171653Z VRB03KT 10SM CLR 32/18 A3003 RMK AO2 SLP162 T03220183 $
KMIA 171653Z 14008KT 110V190 10SM SCT035 BKN050 BKN120 BKN250 33/23 A3009 RMK AO2 LTG DSNT NW SLP191 CB DSNT NW T03330228